sensor_id;sensor_type;location;lat;lon;timestamp;P1;durP1;ratioP1;P2;durP2;ratioP2
4674;SDS011;2351;50.812;12.872;2023-07-13T00:01:22;2.70;;;2.07;;
4674;SDS011;2351;50.812;12.872;2023-07-13T00:03:54;2.50;;;2.30;;
4674;SDS011;2351;50.812;12.872;2023-07-13T00:06:26;3.30;;;2.33;;
4674;SDS011;2351;50.812;12.872;2023-07-13T00:09:00;3.63;;;2.60;;
4674;SDS011;2351;50.812;12.872;2023-07-13T00:11:32;6.70;;;2.17;;
4674;SDS011;2351;50.812;12.872;2023-07-13T00:14:06;4.17;;;2.20;;
4674;SDS011;2351;50.812;12.872;2023-07-13T00:16:38;7.33;;;2.57;;
4674;SDS011;2351;50.812;12.872;2023-07-13T00:19:13;4.57;;;2.80;;
4674;SDS011;2351;50.812;12.872;2023-07-13T00:21:45;3.13;;;2.57;;
4674;SDS011;2351;50.812;12.872;2023-07-13T00:24:17;2.20;;;2.00;;
4674;SDS011;2351;50.812;12.872;2023-07-13T00:26:53;2.87;;;2.20;;
4674;SDS011;2351;50.812;12.872;2023-07-13T00:29:27;6.17;;;2.70;;
4674;SDS011;2351;50.812;12.872;2023-07-13T00:31:58;2.60;;;1.90;;
4674;SDS011;2351;50.812;12.872;2023-07-13T00:34:31;2.53;;;2.33;;
4674;SDS011;2351;50.812;12.872;2023-07-13T00:37:02;5.43;;;2.30;;
4674;SDS011;2351;50.812;12.872;2023-07-13T00:39:36;2.13;;;2.03;;
4674;SDS011;2351;50.812;12.872;2023-07-13T00:42:09;3.10;;;2.80;;
4674;SDS011;2351;50.812;12.872;2023-07-13T00:47:58;12.53;;;2.33;;
4674;SDS011;2351;50.812;12.872;2023-07-13T00:50:30;3.33;;;2.33;;
4674;SDS011;2351;50.812;12.872;2023-07-13T00:53:02;3.80;;;2.73;;
4674;SDS011;2351;50.812;12.872;2023-07-13T00:55:33;6.63;;;2.77;;
4674;SDS011;2351;50.812;12.872;2023-07-13T00:58:06;4.57;;;2.90;;
4674;SDS011;2351;50.812;12.872;2023-07-13T01:00:39;3.33;;;2.50;;
4674;SDS011;2351;50.812;12.872;2023-07-13T01:03:11;2.77;;;2.57;;
4674;SDS011;2351;50.812;12.872;2023-07-13T01:05:43;3.40;;;2.40;;
4674;SDS011;2351;50.812;12.872;2023-07-13T01:08:15;2.67;;;2.40;;
4674;SDS011;2351;50.812;12.872;2023-07-13T01:10:50;3.03;;;2.43;;
4674;SDS011;2351;50.812;12.872;2023-07-13T01:13:23;3.00;;;2.60;;
4674;SDS011;2351;50.812;12.872;2023-07-13T01:15:57;8.67;;;3.03;;
4674;SDS011;2351;50.812;12.872;2023-07-13T01:18:34;3.57;;;2.77;;
4674;SDS011;2351;50.812;12.872;2023-07-13T01:21:07;7.93;;;4.17;;
4674;SDS011;2351;50.812;12.872;2023-07-13T01:23:39;5.13;;;3.10;;
4674;SDS011;2351;50.812;12.872;2023-07-13T01:26:11;3.97;;;2.90;;
4674;SDS011;2351;50.812;12.872;2023-07-13T01:28:43;7.53;;;2.83;;
4674;SDS011;2351;50.812;12.872;2023-07-13T01:31:14;4.73;;;2.50;;
4674;SDS011;2351;50.812;12.872;2023-07-13T01:33:46;4.80;;;2.60;;
4674;SDS011;2351;50.812;12.872;2023-07-13T01:36:19;3.80;;;2.80;;
4674;SDS011;2351;50.812;12.872;2023-07-13T01:38:51;4.50;;;3.30;;
4674;SDS011;2351;50.812;12.872;2023-07-13T01:41:23;4.13;;;2.80;;
4674;SDS011;2351;50.812;12.872;2023-07-13T01:43:55;3.97;;;3.10;;
4674;SDS011;2351;50.812;12.872;2023-07-13T01:46:26;3.27;;;2.90;;
4674;SDS011;2351;50.812;12.872;2023-07-13T01:48:58;3.57;;;2.87;;
4674;SDS011;2351;50.812;12.872;2023-07-13T01:51:31;2.53;;;2.33;;
4674;SDS011;2351;50.812;12.872;2023-07-13T01:54:03;4.23;;;3.03;;
4674;SDS011;2351;50.812;12.872;2023-07-13T01:56:34;4.33;;;2.70;;
4674;SDS011;2351;50.812;12.872;2023-07-13T01:59:06;4.20;;;2.60;;
4674;SDS011;2351;50.812;12.872;2023-07-13T02:01:38;5.80;;;2.83;;
4674;SDS011;2351;50.812;12.872;2023-07-13T02:04:09;5.80;;;3.23;;
4674;SDS011;2351;50.812;12.872;2023-07-13T02:06:43;3.53;;;3.23;;
4674;SDS011;2351;50.812;12.872;2023-07-13T02:09:15;4.73;;;2.83;;
4674;SDS011;2351;50.812;12.872;2023-07-13T02:11:46;4.07;;;2.70;;
4674;SDS011;2351;50.812;12.872;2023-07-13T02:14:18;13.53;;;3.07;;
4674;SDS011;2351;50.812;12.872;2023-07-13T02:16:50;3.70;;;2.97;;
4674;SDS011;2351;50.812;12.872;2023-07-13T02:19:22;3.43;;;3.13;;
4674;SDS011;2351;50.812;12.872;2023-07-13T02:21:55;6.20;;;3.40;;
4674;SDS011;2351;50.812;12.872;2023-07-13T02:24:27;6.00;;;3.30;;
4674;SDS011;2351;50.812;12.872;2023-07-13T02:26:59;6.83;;;3.80;;
4674;SDS011;2351;50.812;12.872;2023-07-13T02:29:30;4.10;;;3.20;;
4674;SDS011;2351;50.812;12.872;2023-07-13T02:32:02;3.50;;;3.20;;
4674;SDS011;2351;50.812;12.872;2023-07-13T02:34:34;7.60;;;3.33;;
4674;SDS011;2351;50.812;12.872;2023-07-13T02:37:07;5.67;;;3.43;;
4674;SDS011;2351;50.812;12.872;2023-07-13T02:39:39;4.43;;;3.80;;
4674;SDS011;2351;50.812;12.872;2023-07-13T02:42:11;3.77;;;3.47;;
4674;SDS011;2351;50.812;12.872;2023-07-13T02:44:43;10.50;;;3.73;;
4674;SDS011;2351;50.812;12.872;2023-07-13T02:47:14;4.63;;;4.00;;
4674;SDS011;2351;50.812;12.872;2023-07-13T02:49:46;6.43;;;3.10;;
4674;SDS011;2351;50.812;12.872;2023-07-13T02:52:19;3.83;;;3.53;;
4674;SDS011;2351;50.812;12.872;2023-07-13T02:54:51;6.63;;;3.30;;
4674;SDS011;2351;50.812;12.872;2023-07-13T02:57:22;4.10;;;3.50;;
4674;SDS011;2351;50.812;12.872;2023-07-13T02:59:54;4.13;;;3.37;;
4674;SDS011;2351;50.812;12.872;2023-07-13T03:02:26;5.43;;;4.17;;
4674;SDS011;2351;50.812;12.872;2023-07-13T03:04:58;8.90;;;3.57;;
4674;SDS011;2351;50.812;12.872;2023-07-13T03:07:31;9.20;;;3.60;;
4674;SDS011;2351;50.812;12.872;2023-07-13T03:10:03;5.20;;;3.60;;
4674;SDS011;2351;50.812;12.872;2023-07-13T03:12:36;7.43;;;3.30;;
4674;SDS011;2351;50.812;12.872;2023-07-13T03:15:08;5.97;;;4.10;;
4674;SDS011;2351;50.812;12.872;2023-07-13T03:17:40;4.90;;;3.70;;
4674;SDS011;2351;50.812;12.872;2023-07-13T03:20:12;5.50;;;3.60;;
4674;SDS011;2351;50.812;12.872;2023-07-13T03:22:45;8.23;;;4.20;;
4674;SDS011;2351;50.812;12.872;2023-07-13T03:25:17;3.90;;;3.50;;
4674;SDS011;2351;50.812;12.872;2023-07-13T03:27:49;5.13;;;4.00;;
4674;SDS011;2351;50.812;12.872;2023-07-13T03:30:20;7.90;;;4.50;;
4674;SDS011;2351;50.812;12.872;2023-07-13T03:32:52;19.00;;;3.90;;
4674;SDS011;2351;50.812;12.872;2023-07-13T03:35:24;16.30;;;4.50;;
4674;SDS011;2351;50.812;12.872;2023-07-13T03:37:57;5.53;;;3.87;;
4674;SDS011;2351;50.812;12.872;2023-07-13T03:40:29;9.13;;;3.93;;
4674;SDS011;2351;50.812;12.872;2023-07-13T03:43:00;4.80;;;3.80;;
4674;SDS011;2351;50.812;12.872;2023-07-13T03:45:32;7.63;;;4.20;;
4674;SDS011;2351;50.812;12.872;2023-07-13T03:48:04;12.23;;;3.60;;
4674;SDS011;2351;50.812;12.872;2023-07-13T03:50:36;11.10;;;5.20;;
4674;SDS011;2351;50.812;12.872;2023-07-13T03:53:09;4.73;;;3.63;;
4674;SDS011;2351;50.812;12.872;2023-07-13T03:55:41;5.60;;;4.10;;
4674;SDS011;2351;50.812;12.872;2023-07-13T03:58:24;15.03;;;3.73;;
4674;SDS011;2351;50.812;12.872;2023-07-13T04:01:02;6.00;;;4.20;;
4674;SDS011;2351;50.812;12.872;2023-07-13T04:03:35;12.70;;;3.90;;
4674;SDS011;2351;50.812;12.872;2023-07-13T04:06:08;16.37;;;3.90;;
4674;SDS011;2351;50.812;12.872;2023-07-13T04:08:46;13.80;;;4.00;;
4674;SDS011;2351;50.812;12.872;2023-07-13T04:11:21;5.40;;;3.80;;
4674;SDS011;2351;50.812;12.872;2023-07-13T04:13:54;10.10;;;3.50;;
4674;SDS011;2351;50.812;12.872;2023-07-13T04:16:26;7.97;;;4.37;;
4674;SDS011;2351;50.812;12.872;2023-07-13T04:18:58;8.47;;;4.33;;
4674;SDS011;2351;50.812;12.872;2023-07-13T04:21:30;7.27;;;4.23;;
4674;SDS011;2351;50.812;12.872;2023-07-13T04:24:04;4.23;;;3.83;;
4674;SDS011;2351;50.812;12.872;2023-07-13T04:26:36;5.80;;;4.40;;
4674;SDS011;2351;50.812;12.872;2023-07-13T04:29:08;7.60;;;3.60;;
4674;SDS011;2351;50.812;12.872;2023-07-13T04:31:40;6.50;;;4.53;;
4674;SDS011;2351;50.812;12.872;2023-07-13T04:34:12;13.83;;;4.87;;
4674;SDS011;2351;50.812;12.872;2023-07-13T04:36:43;7.43;;;3.83;;
4674;SDS011;2351;50.812;12.872;2023-07-13T04:39:16;4.43;;;3.90;;
4674;SDS011;2351;50.812;12.872;2023-07-13T04:41:48;8.10;;;4.30;;
4674;SDS011;2351;50.812;12.872;2023-07-13T04:44:20;9.93;;;4.60;;
4674;SDS011;2351;50.812;12.872;2023-07-13T04:46:51;4.33;;;3.97;;
4674;SDS011;2351;50.812;12.872;2023-07-13T04:49:23;14.80;;;4.80;;
4674;SDS011;2351;50.812;12.872;2023-07-13T04:51:55;8.47;;;4.67;;
4674;SDS011;2351;50.812;12.872;2023-07-13T04:54:28;9.50;;;4.63;;
4674;SDS011;2351;50.812;12.872;2023-07-13T04:57:00;6.17;;;4.13;;
4674;SDS011;2351;50.812;12.872;2023-07-13T04:59:32;8.03;;;4.00;;
4674;SDS011;2351;50.812;12.872;2023-07-13T05:02:04;8.70;;;3.90;;
4674;SDS011;2351;50.812;12.872;2023-07-13T05:04:36;9.70;;;4.33;;
4674;SDS011;2351;50.812;12.872;2023-07-13T05:07:08;9.77;;;4.27;;
4674;SDS011;2351;50.812;12.872;2023-07-13T05:09:42;10.37;;;3.83;;
4674;SDS011;2351;50.812;12.872;2023-07-13T05:12:14;8.00;;;4.07;;
4674;SDS011;2351;50.812;12.872;2023-07-13T05:14:46;7.90;;;4.80;;
4674;SDS011;2351;50.812;12.872;2023-07-13T05:17:18;6.93;;;3.97;;
4674;SDS011;2351;50.812;12.872;2023-07-13T05:19:50;4.57;;;4.17;;
4674;SDS011;2351;50.812;12.872;2023-07-13T05:22:22;19.33;;;4.97;;
4674;SDS011;2351;50.812;12.872;2023-07-13T05:24:55;13.43;;;4.60;;
4674;SDS011;2351;50.812;12.872;2023-07-13T05:27:27;8.00;;;4.17;;
4674;SDS011;2351;50.812;12.872;2023-07-13T05:29:58;6.33;;;4.80;;
4674;SDS011;2351;50.812;12.872;2023-07-13T05:32:30;6.47;;;4.43;;
4674;SDS011;2351;50.812;12.872;2023-07-13T05:35:02;10.07;;;4.70;;
4674;SDS011;2351;50.812;12.872;2023-07-13T05:37:34;14.20;;;4.50;;
4674;SDS011;2351;50.812;12.872;2023-07-13T05:40:10;5.03;;;4.03;;
4674;SDS011;2351;50.812;12.872;2023-07-13T05:42:42;9.20;;;4.40;;
4674;SDS011;2351;50.812;12.872;2023-07-13T05:45:14;10.00;;;3.80;;
4674;SDS011;2351;50.812;12.872;2023-07-13T05:47:45;3.67;;;3.37;;
4674;SDS011;2351;50.812;12.872;2023-07-13T05:50:17;4.43;;;3.40;;
4674;SDS011;2351;50.812;12.872;2023-07-13T05:52:49;8.03;;;3.40;;
4674;SDS011;2351;50.812;12.872;2023-07-13T05:55:23;4.20;;;3.50;;
4674;SDS011;2351;50.812;12.872;2023-07-13T05:57:55;8.73;;;3.03;;
4674;SDS011;2351;50.812;12.872;2023-07-13T06:00:28;6.40;;;3.50;;
4674;SDS011;2351;50.812;12.872;2023-07-13T06:02:59;4.07;;;3.67;;
4674;SDS011;2351;50.812;12.872;2023-07-13T06:05:31;7.57;;;3.00;;
4674;SDS011;2351;50.812;12.872;2023-07-13T06:08:04;4.30;;;3.03;;
4674;SDS011;2351;50.812;12.872;2023-07-13T06:10:37;5.70;;;2.90;;
4674;SDS011;2351;50.812;12.872;2023-07-13T06:13:09;2.77;;;2.43;;
4674;SDS011;2351;50.812;12.872;2023-07-13T06:15:41;6.30;;;2.80;;
4674;SDS011;2351;50.812;12.872;2023-07-13T06:18:13;3.40;;;2.67;;
4674;SDS011;2351;50.812;12.872;2023-07-13T06:20:44;5.43;;;2.60;;
4674;SDS011;2351;50.812;12.872;2023-07-13T06:23:16;9.53;;;2.90;;
4674;SDS011;2351;50.812;12.872;2023-07-13T06:25:49;4.97;;;2.40;;
4674;SDS011;2351;50.812;12.872;2023-07-13T06:28:21;9.67;;;2.57;;
4674;SDS011;2351;50.812;12.872;2023-07-13T06:30:53;4.70;;;2.20;;
4674;SDS011;2351;50.812;12.872;2023-07-13T06:33:24;3.67;;;2.17;;
4674;SDS011;2351;50.812;12.872;2023-07-13T06:35:56;7.70;;;2.30;;
4674;SDS011;2351;50.812;12.872;2023-07-13T06:38:28;6.30;;;2.37;;
4674;SDS011;2351;50.812;12.872;2023-07-13T06:41:02;8.20;;;2.83;;
4674;SDS011;2351;50.812;12.872;2023-07-13T06:43:33;5.33;;;2.40;;
4674;SDS011;2351;50.812;12.872;2023-07-13T06:46:05;5.30;;;2.90;;
4674;SDS011;2351;50.812;12.872;2023-07-13T06:48:38;5.80;;;2.67;;
4674;SDS011;2351;50.812;12.872;2023-07-13T06:51:09;3.57;;;2.53;;
4674;SDS011;2351;50.812;12.872;2023-07-13T06:53:41;5.87;;;2.67;;
4674;SDS011;2351;50.812;12.872;2023-07-13T06:56:15;3.63;;;2.90;;
4674;SDS011;2351;50.812;12.872;2023-07-13T06:58:47;3.83;;;2.60;;
4674;SDS011;2351;50.812;12.872;2023-07-13T07:01:19;5.00;;;2.97;;
4674;SDS011;2351;50.812;12.872;2023-07-13T07:03:50;5.40;;;2.47;;
4674;SDS011;2351;50.812;12.872;2023-07-13T07:06:22;8.37;;;3.23;;
4674;SDS011;2351;50.812;12.872;2023-07-13T07:08:54;11.40;;;3.23;;
4674;SDS011;2351;50.812;12.872;2023-07-13T07:11:28;3.13;;;2.73;;
4674;SDS011;2351;50.812;12.872;2023-07-13T07:13:59;3.77;;;2.60;;
4674;SDS011;2351;50.812;12.872;2023-07-13T07:16:31;6.70;;;2.70;;
4674;SDS011;2351;50.812;12.872;2023-07-13T07:19:03;4.90;;;2.17;;
4674;SDS011;2351;50.812;12.872;2023-07-13T07:21:35;2.63;;;2.20;;
4674;SDS011;2351;50.812;12.872;2023-07-13T07:24:06;10.13;;;2.53;;
4674;SDS011;2351;50.812;12.872;2023-07-13T07:26:40;5.80;;;2.17;;
4674;SDS011;2351;50.812;12.872;2023-07-13T07:29:11;5.60;;;2.33;;
4674;SDS011;2351;50.812;12.872;2023-07-13T07:31:43;5.30;;;2.27;;
4674;SDS011;2351;50.812;12.872;2023-07-13T07:34:15;2.90;;;1.97;;
4674;SDS011;2351;50.812;12.872;2023-07-13T07:36:47;11.57;;;2.27;;
4674;SDS011;2351;50.812;12.872;2023-07-13T07:39:20;9.53;;;2.30;;
4674;SDS011;2351;50.812;12.872;2023-07-13T07:41:54;2.43;;;1.80;;
4674;SDS011;2351;50.812;12.872;2023-07-13T07:44:26;3.63;;;1.87;;
4674;SDS011;2351;50.812;12.872;2023-07-13T07:46:58;3.00;;;1.77;;
4674;SDS011;2351;50.812;12.872;2023-07-13T07:49:30;1.80;;;1.40;;
4674;SDS011;2351;50.812;12.872;2023-07-13T07:52:02;6.43;;;1.80;;
4674;SDS011;2351;50.812;12.872;2023-07-13T07:54:34;4.10;;;1.53;;
4674;SDS011;2351;50.812;12.872;2023-07-13T07:57:07;1.70;;;1.23;;
4674;SDS011;2351;50.812;12.872;2023-07-13T07:59:39;1.97;;;1.20;;
4674;SDS011;2351;50.812;12.872;2023-07-13T08:02:11;3.10;;;2.03;;
4674;SDS011;2351;50.812;12.872;2023-07-13T08:04:43;5.70;;;2.13;;
4674;SDS011;2351;50.812;12.872;2023-07-13T08:07:14;9.93;;;1.50;;
4674;SDS011;2351;50.812;12.872;2023-07-13T08:09:46;7.87;;;2.70;;
4674;SDS011;2351;50.812;12.872;2023-07-13T08:12:23;6.67;;;2.17;;
4674;SDS011;2351;50.812;12.872;2023-07-13T08:14:55;3.43;;;1.53;;
4674;SDS011;2351;50.812;12.872;2023-07-13T08:17:27;2.60;;;1.63;;
4674;SDS011;2351;50.812;12.872;2023-07-13T08:19:59;5.50;;;1.70;;
4674;SDS011;2351;50.812;12.872;2023-07-13T08:22:31;9.87;;;2.23;;
4674;SDS011;2351;50.812;12.872;2023-07-13T08:25:03;3.53;;;1.50;;
4674;SDS011;2351;50.812;12.872;2023-07-13T08:27:36;1.73;;;1.63;;
4674;SDS011;2351;50.812;12.872;2023-07-13T08:30:08;5.10;;;2.17;;
4674;SDS011;2351;50.812;12.872;2023-07-13T08:32:41;17.57;;;1.60;;
4674;SDS011;2351;50.812;12.872;2023-07-13T08:35:12;2.80;;;1.43;;
4674;SDS011;2351;50.812;12.872;2023-07-13T08:37:45;3.90;;;1.40;;
4674;SDS011;2351;50.812;12.872;2023-07-13T08:40:17;4.73;;;2.27;;
4674;SDS011;2351;50.812;12.872;2023-07-13T08:42:56;4.43;;;1.63;;
4674;SDS011;2351;50.812;12.872;2023-07-13T08:45:38;3.93;;;1.90;;
4674;SDS011;2351;50.812;12.872;2023-07-13T08:48:16;4.77;;;1.70;;
4674;SDS011;2351;50.812;12.872;2023-07-13T08:50:53;1.83;;;1.67;;
4674;SDS011;2351;50.812;12.872;2023-07-13T08:53:30;4.93;;;1.70;;
4674;SDS011;2351;50.812;12.872;2023-07-13T08:56:20;5.73;;;1.87;;
4674;SDS011;2351;50.812;12.872;2023-07-13T08:58:56;3.33;;;1.60;;
4674;SDS011;2351;50.812;12.872;2023-07-13T09:01:31;4.63;;;1.50;;
4674;SDS011;2351;50.812;12.872;2023-07-13T09:04:16;4.10;;;1.80;;
4674;SDS011;2351;50.812;12.872;2023-07-13T09:06:55;4.07;;;2.13;;
4674;SDS011;2351;50.812;12.872;2023-07-13T09:09:34;16.23;;;2.13;;
4674;SDS011;2351;50.812;12.872;2023-07-13T09:12:15;3.70;;;1.90;;
4674;SDS011;2351;50.812;12.872;2023-07-13T09:14:54;5.30;;;1.67;;
4674;SDS011;2351;50.812;12.872;2023-07-13T09:17:31;6.70;;;2.00;;
4674;SDS011;2351;50.812;12.872;2023-07-13T09:20:09;2.90;;;2.10;;
4674;SDS011;2351;50.812;12.872;2023-07-13T09:22:49;3.07;;;2.00;;
4674;SDS011;2351;50.812;12.872;2023-07-13T09:25:24;4.20;;;1.80;;
4674;SDS011;2351;50.812;12.872;2023-07-13T09:28:02;6.10;;;2.27;;
4674;SDS011;2351;50.812;12.872;2023-07-13T09:30:45;4.10;;;1.83;;
4674;SDS011;2351;50.812;12.872;2023-07-13T09:33:23;3.03;;;1.93;;
4674;SDS011;2351;50.812;12.872;2023-07-13T09:35:59;4.87;;;1.83;;
4674;SDS011;2351;50.812;12.872;2023-07-13T09:38:32;12.73;;;1.40;;
4674;SDS011;2351;50.812;12.872;2023-07-13T09:41:09;3.83;;;2.07;;
4674;SDS011;2351;50.812;12.872;2023-07-13T09:46:52;2.90;;;2.20;;
4674;SDS011;2351;50.812;12.872;2023-07-13T09:49:25;7.40;;;2.33;;
4674;SDS011;2351;50.812;12.872;2023-07-13T09:51:58;4.27;;;2.40;;
4674;SDS011;2351;50.812;12.872;2023-07-13T09:54:33;8.53;;;2.27;;
4674;SDS011;2351;50.812;12.872;2023-07-13T09:57:11;5.73;;;1.73;;
4674;SDS011;2351;50.812;12.872;2023-07-13T09:59:45;16.27;;;2.13;;
4674;SDS011;2351;50.812;12.872;2023-07-13T10:02:30;7.50;;;2.53;;
4674;SDS011;2351;50.812;12.872;2023-07-13T10:05:04;3.60;;;2.53;;
4674;SDS011;2351;50.812;12.872;2023-07-13T10:07:38;4.90;;;2.40;;
4674;SDS011;2351;50.812;12.872;2023-07-13T10:10:13;12.73;;;2.50;;
4674;SDS011;2351;50.812;12.872;2023-07-13T10:12:47;3.20;;;2.40;;
4674;SDS011;2351;50.812;12.872;2023-07-13T10:15:21;2.60;;;2.40;;
4674;SDS011;2351;50.812;12.872;2023-07-13T10:17:54;8.43;;;1.83;;
4674;SDS011;2351;50.812;12.872;2023-07-13T10:20:28;9.93;;;1.83;;
4674;SDS011;2351;50.812;12.872;2023-07-13T10:23:02;7.80;;;2.67;;
4674;SDS011;2351;50.812;12.872;2023-07-13T10:25:42;12.60;;;2.27;;
4674;SDS011;2351;50.812;12.872;2023-07-13T10:28:20;4.43;;;1.90;;
4674;SDS011;2351;50.812;12.872;2023-07-13T10:30:58;3.80;;;2.07;;
4674;SDS011;2351;50.812;12.872;2023-07-13T10:33:33;4.63;;;2.13;;
4674;SDS011;2351;50.812;12.872;2023-07-13T10:36:10;11.63;;;1.87;;
4674;SDS011;2351;50.812;12.872;2023-07-13T10:38:46;7.33;;;1.90;;
4674;SDS011;2351;50.812;12.872;2023-07-13T10:41:20;5.03;;;1.80;;
4674;SDS011;2351;50.812;12.872;2023-07-13T10:43:54;7.97;;;1.63;;
4674;SDS011;2351;50.812;12.872;2023-07-13T10:46:27;14.97;;;2.37;;
4674;SDS011;2351;50.812;12.872;2023-07-13T10:49:02;4.10;;;1.80;;
4674;SDS011;2351;50.812;12.872;2023-07-13T10:51:37;3.70;;;1.73;;
4674;SDS011;2351;50.812;12.872;2023-07-13T10:54:16;7.67;;;1.60;;
4674;SDS011;2351;50.812;12.872;2023-07-13T10:56:53;2.90;;;1.60;;
4674;SDS011;2351;50.812;12.872;2023-07-13T10:59:38;5.00;;;1.70;;
4674;SDS011;2351;50.812;12.872;2023-07-13T11:02:13;1.70;;;1.60;;
4674;SDS011;2351;50.812;12.872;2023-07-13T11:04:54;4.47;;;1.70;;
4674;SDS011;2351;50.812;12.872;2023-07-13T11:07:29;2.60;;;1.47;;
4674;SDS011;2351;50.812;12.872;2023-07-13T11:13:39;2.97;;;1.70;;
4674;SDS011;2351;50.812;12.872;2023-07-13T11:22:19;8.10;;;1.93;;
4674;SDS011;2351;50.812;12.872;2023-07-13T11:24:58;4.03;;;2.17;;
4674;SDS011;2351;50.812;12.872;2023-07-13T11:27:34;3.47;;;1.90;;
4674;SDS011;2351;50.812;12.872;2023-07-13T11:30:17;10.27;;;2.20;;
4674;SDS011;2351;50.812;12.872;2023-07-13T11:33:04;5.07;;;1.80;;
4674;SDS011;2351;50.812;12.872;2023-07-13T11:35:46;1.87;;;1.73;;
4674;SDS011;2351;50.812;12.872;2023-07-13T11:38:28;5.43;;;1.67;;
4674;SDS011;2351;50.812;12.872;2023-07-13T11:41:05;2.93;;;1.63;;
4674;SDS011;2351;50.812;12.872;2023-07-13T11:43:38;5.33;;;1.83;;
4674;SDS011;2351;50.812;12.872;2023-07-13T11:46:14;3.77;;;1.90;;
4674;SDS011;2351;50.812;12.872;2023-07-13T11:48:47;14.77;;;2.10;;
4674;SDS011;2351;50.812;12.872;2023-07-13T11:51:21;4.30;;;1.70;;
4674;SDS011;2351;50.812;12.872;2023-07-13T11:53:59;9.83;;;1.50;;
4674;SDS011;2351;50.812;12.872;2023-07-13T11:56:34;4.63;;;2.07;;
4674;SDS011;2351;50.812;12.872;2023-07-13T11:59:08;2.83;;;1.87;;
4674;SDS011;2351;50.812;12.872;2023-07-13T12:01:45;2.00;;;1.40;;
4674;SDS011;2351;50.812;12.872;2023-07-13T12:04:21;4.13;;;1.60;;
4674;SDS011;2351;50.812;12.872;2023-07-13T12:06:56;3.10;;;2.00;;
4674;SDS011;2351;50.812;12.872;2023-07-13T12:09:30;5.57;;;1.90;;
4674;SDS011;2351;50.812;12.872;2023-07-13T12:12:10;3.60;;;1.77;;
4674;SDS011;2351;50.812;12.872;2023-07-13T12:14:43;9.73;;;2.00;;
4674;SDS011;2351;50.812;12.872;2023-07-13T12:17:16;2.80;;;1.77;;
4674;SDS011;2351;50.812;12.872;2023-07-13T12:19:50;3.03;;;1.63;;
4674;SDS011;2351;50.812;12.872;2023-07-13T12:22:23;2.73;;;1.83;;
4674;SDS011;2351;50.812;12.872;2023-07-13T12:24:57;3.23;;;1.93;;
4674;SDS011;2351;50.812;12.872;2023-07-13T12:27:29;8.90;;;1.73;;
4674;SDS011;2351;50.812;12.872;2023-07-13T12:30:04;3.80;;;1.90;;
4674;SDS011;2351;50.812;12.872;2023-07-13T12:32:56;2.70;;;1.70;;
4674;SDS011;2351;50.812;12.872;2023-07-13T12:35:29;4.07;;;2.03;;
4674;SDS011;2351;50.812;12.872;2023-07-13T12:38:07;3.43;;;1.70;;
4674;SDS011;2351;50.812;12.872;2023-07-13T12:40:42;8.63;;;2.23;;
4674;SDS011;2351;50.812;12.872;2023-07-13T12:43:15;2.60;;;1.70;;
4674;SDS011;2351;50.812;12.872;2023-07-13T12:45:57;2.20;;;1.27;;
4674;SDS011;2351;50.812;12.872;2023-07-13T12:48:37;5.47;;;1.90;;
4674;SDS011;2351;50.812;12.872;2023-07-13T12:51:12;6.07;;;1.80;;
4674;SDS011;2351;50.812;12.872;2023-07-13T12:53:47;1.73;;;1.63;;
4674;SDS011;2351;50.812;12.872;2023-07-13T12:56:23;8.13;;;2.10;;
4674;SDS011;2351;50.812;12.872;2023-07-13T12:58:57;2.50;;;1.80;;
4674;SDS011;2351;50.812;12.872;2023-07-13T13:01:32;2.40;;;1.67;;
4674;SDS011;2351;50.812;12.872;2023-07-13T13:04:08;7.23;;;1.87;;
4674;SDS011;2351;50.812;12.872;2023-07-13T13:06:41;10.13;;;1.77;;
4674;SDS011;2351;50.812;12.872;2023-07-13T13:09:15;2.53;;;1.57;;
4674;SDS011;2351;50.812;12.872;2023-07-13T13:11:49;2.87;;;1.60;;
4674;SDS011;2351;50.812;12.872;2023-07-13T13:14:22;2.60;;;1.53;;
4674;SDS011;2351;50.812;12.872;2023-07-13T13:16:54;5.90;;;1.60;;
4674;SDS011;2351;50.812;12.872;2023-07-13T13:19:27;5.30;;;1.70;;
4674;SDS011;2351;50.812;12.872;2023-07-13T13:22:00;2.00;;;1.60;;
4674;SDS011;2351;50.812;12.872;2023-07-13T13:24:32;2.20;;;1.50;;
4674;SDS011;2351;50.812;12.872;2023-07-13T13:27:09;2.67;;;1.83;;
4674;SDS011;2351;50.812;12.872;2023-07-13T13:29:46;6.37;;;2.20;;
4674;SDS011;2351;50.812;12.872;2023-07-13T13:32:20;9.47;;;1.80;;
4674;SDS011;2351;50.812;12.872;2023-07-13T13:34:52;2.33;;;1.40;;
4674;SDS011;2351;50.812;12.872;2023-07-13T13:37:24;3.53;;;1.50;;
4674;SDS011;2351;50.812;12.872;2023-07-13T13:39:56;1.53;;;1.07;;
4674;SDS011;2351;50.812;12.872;2023-07-13T13:42:29;2.93;;;1.37;;
4674;SDS011;2351;50.812;12.872;2023-07-13T13:45:01;1.47;;;1.00;;
4674;SDS011;2351;50.812;12.872;2023-07-13T13:47:33;5.60;;;1.67;;
4674;SDS011;2351;50.812;12.872;2023-07-13T13:50:11;1.37;;;1.17;;
4674;SDS011;2351;50.812;12.872;2023-07-13T13:52:44;3.27;;;1.43;;
4674;SDS011;2351;50.812;12.872;2023-07-13T13:55:17;1.30;;;1.20;;
4674;SDS011;2351;50.812;12.872;2023-07-13T13:57:51;1.50;;;1.40;;
4674;SDS011;2351;50.812;12.872;2023-07-13T14:00:24;3.33;;;1.50;;
4674;SDS011;2351;50.812;12.872;2023-07-13T14:02:56;4.33;;;1.23;;
4674;SDS011;2351;50.812;12.872;2023-07-13T14:05:29;2.83;;;1.57;;
4674;SDS011;2351;50.812;12.872;2023-07-13T14:08:02;1.90;;;1.30;;
4674;SDS011;2351;50.812;12.872;2023-07-13T14:10:35;3.10;;;1.47;;
4674;SDS011;2351;50.812;12.872;2023-07-13T14:13:13;3.70;;;1.00;;
4674;SDS011;2351;50.812;12.872;2023-07-13T14:15:49;0.87;;;0.87;;
4674;SDS011;2351;50.812;12.872;2023-07-13T14:18:22;4.80;;;1.10;;
4674;SDS011;2351;50.812;12.872;2023-07-13T14:20:54;2.50;;;0.87;;
4674;SDS011;2351;50.812;12.872;2023-07-13T14:23:26;1.57;;;0.83;;
4674;SDS011;2351;50.812;12.872;2023-07-13T14:25:57;1.53;;;0.90;;
4674;SDS011;2351;50.812;12.872;2023-07-13T14:28:31;1.90;;;0.73;;
4674;SDS011;2351;50.812;12.872;2023-07-13T14:31:03;1.73;;;1.03;;
4674;SDS011;2351;50.812;12.872;2023-07-13T14:33:35;1.03;;;0.87;;
4674;SDS011;2351;50.812;12.872;2023-07-13T14:36:12;0.83;;;0.63;;
4674;SDS011;2351;50.812;12.872;2023-07-13T14:38:54;1.00;;;0.60;;
4674;SDS011;2351;50.812;12.872;2023-07-13T14:41:27;1.17;;;0.80;;
4674;SDS011;2351;50.812;12.872;2023-07-13T14:44:00;1.00;;;0.60;;
4674;SDS011;2351;50.812;12.872;2023-07-13T14:46:33;2.50;;;1.00;;
4674;SDS011;2351;50.812;12.872;2023-07-13T14:49:06;2.97;;;0.80;;
4674;SDS011;2351;50.812;12.872;2023-07-13T14:51:45;2.50;;;0.70;;
4674;SDS011;2351;50.812;12.872;2023-07-13T14:54:16;1.10;;;0.80;;
4674;SDS011;2351;50.812;12.872;2023-07-13T14:56:48;2.73;;;0.70;;
4674;SDS011;2351;50.812;12.872;2023-07-13T14:59:22;1.00;;;0.73;;
4674;SDS011;2351;50.812;12.872;2023-07-13T15:01:54;2.37;;;0.80;;
4674;SDS011;2351;50.812;12.872;2023-07-13T15:04:26;9.73;;;1.00;;
4674;SDS011;2351;50.812;12.872;2023-07-13T15:06:58;1.60;;;0.90;;
4674;SDS011;2351;50.812;12.872;2023-07-13T15:09:32;1.50;;;1.00;;
4674;SDS011;2351;50.812;12.872;2023-07-13T15:12:04;5.43;;;0.70;;
4674;SDS011;2351;50.812;12.872;2023-07-13T15:14:38;8.27;;;1.03;;
4674;SDS011;2351;50.812;12.872;2023-07-13T15:17:23;0.90;;;0.57;;
4674;SDS011;2351;50.812;12.872;2023-07-13T15:19:58;1.63;;;0.83;;
4674;SDS011;2351;50.812;12.872;2023-07-13T15:22:30;5.30;;;1.10;;
4674;SDS011;2351;50.812;12.872;2023-07-13T15:25:03;0.60;;;0.40;;
4674;SDS011;2351;50.812;12.872;2023-07-13T15:27:39;5.80;;;0.70;;
4674;SDS011;2351;50.812;12.872;2023-07-13T15:30:13;0.70;;;0.60;;
4674;SDS011;2351;50.812;12.872;2023-07-13T15:32:46;3.20;;;0.70;;
4674;SDS011;2351;50.812;12.872;2023-07-13T15:35:20;1.13;;;0.50;;
4674;SDS011;2351;50.812;12.872;2023-07-13T15:37:53;1.00;;;0.80;;
4674;SDS011;2351;50.812;12.872;2023-07-13T15:40:25;1.03;;;0.57;;
4674;SDS011;2351;50.812;12.872;2023-07-13T15:42:57;8.93;;;1.20;;
4674;SDS011;2351;50.812;12.872;2023-07-13T15:45:30;2.73;;;0.83;;
4674;SDS011;2351;50.812;12.872;2023-07-13T15:48:02;6.13;;;0.83;;
4674;SDS011;2351;50.812;12.872;2023-07-13T15:50:39;0.97;;;0.70;;
4674;SDS011;2351;50.812;12.872;2023-07-13T15:53:14;3.23;;;0.90;;
4674;SDS011;2351;50.812;12.872;2023-07-13T15:55:49;0.80;;;0.80;;